createdAt,value
2022-11-19T00:01:26.621Z,5.00
2022-11-19T00:03:54.053Z,7.00
2022-11-19T00:06:24.816Z,5.00
2022-11-19T00:08:52.051Z,2.00
2022-11-19T00:11:45.599Z,7.00
2022-11-19T00:14:14.468Z,8.00
2022-11-19T00:16:42.447Z,11.00
2022-11-19T00:19:10.986Z,8.67
2022-11-19T00:21:37.962Z,7.33
2022-11-19T00:24:05.214Z,10.00
2022-11-19T00:26:32.139Z,10.00
2022-11-19T00:28:59.141Z,7.00
2022-11-19T00:31:26.024Z,7.00
2022-11-19T00:33:54.835Z,5.00
2022-11-19T00:36:22.964Z,5.00
2022-11-19T00:38:50.067Z,4.67
2022-11-19T00:41:17.080Z,5.00
2022-11-19T00:43:50.662Z,4.67
2022-11-19T00:46:22.676Z,5.00
2022-11-19T00:48:51.463Z,4.00
2022-11-19T00:51:19.993Z,4.33
2022-11-19T00:53:47.380Z,5.00
2022-11-19T00:56:18.175Z,6.33
2022-11-19T00:58:45.949Z,5.00
2022-11-19T01:01:15.347Z,6.33
2022-11-19T01:03:43.067Z,8.00
2022-11-19T01:06:18.888Z,14.33
2022-11-19T01:08:47.467Z,12.33
2022-11-19T01:11:26.257Z,16.00
2022-11-19T01:13:53.658Z,13.00
2022-11-19T01:16:23.668Z,11.00
2022-11-19T01:18:51.444Z,11.00
2022-11-19T01:21:20.802Z,11.00
2022-11-19T01:23:48.821Z,11.00
2022-11-19T01:26:16.294Z,13.00
2022-11-19T01:28:43.971Z,12.33
2022-11-19T01:31:17.372Z,11.00
2022-11-19T01:33:45.468Z,10.67
2022-11-19T01:36:14.831Z,12.33
2022-11-19T01:38:42.108Z,15.33
2022-11-19T01:41:09.707Z,11.67
2022-11-19T01:43:48.969Z,13.00
2022-11-19T01:46:21.866Z,14.00
2022-11-19T01:48:57.819Z,14.00
2022-11-19T01:51:52.032Z,14.00
2022-11-19T01:54:34.255Z,17.00
2022-11-19T01:57:04.765Z,13.67
2022-11-19T01:59:32.466Z,13.33
2022-11-19T02:02:00.248Z,11.67
2022-11-19T02:04:28.911Z,12.33
2022-11-19T02:07:19.292Z,12.33
2022-11-19T02:10:01.971Z,9.33
2022-11-19T02:12:53.318Z,5.00
2022-11-19T02:15:55.444Z,7.33
2022-11-19T02:19:06.871Z,13.00
2022-11-19T02:22:25.415Z,13.00
2022-11-19T02:25:19.515Z,13.00
2022-11-19T02:28:25.115Z,7.67
2022-11-19T02:30:59.362Z,7.67
2022-11-19T02:33:29.138Z,7.00
2022-11-19T02:36:03.105Z,7.33
2022-11-19T02:38:38.242Z,14.00
2022-11-19T02:41:30.961Z,16.00
2022-11-19T02:44:39.632Z,13.00
2022-11-19T02:47:12.356Z,15.33
2022-11-19T02:49:44.818Z,16.00
2022-11-19T02:52:16.559Z,14.00
2022-11-19T02:54:43.946Z,15.33
2022-11-19T02:57:13.167Z,15.33
2022-11-19T03:00:08.551Z,12.33
2022-11-19T03:03:10.007Z,14.00
2022-11-19T03:05:42.660Z,13.00
2022-11-19T03:08:09.654Z,11.67
2022-11-19T03:10:54.857Z,10.00
2022-11-19T03:13:45.128Z,12.67
2022-11-19T03:16:42.702Z,19.00
2022-11-19T03:19:30.878Z,12.33
2022-11-19T03:22:09.834Z,10.33
2022-11-19T03:24:42.063Z,7.00
2022-11-19T03:27:15.396Z,5.00
2022-11-19T03:29:47.180Z,12.33
2022-11-19T03:32:19.842Z,14.00
2022-11-19T03:34:50.741Z,11.67
2022-11-19T03:37:23.003Z,10.00
2022-11-19T03:39:52.620Z,15.33
2022-11-19T03:42:21.392Z,16.33
2022-11-19T03:44:57.376Z,13.00
2022-11-19T03:47:34.356Z,13.00
2022-11-19T03:50:24.650Z,11.00
2022-11-19T03:52:51.896Z,10.00
2022-11-19T03:55:18.925Z,5.67
2022-11-19T03:57:46.186Z,1.00
2022-11-19T04:00:13.485Z,15.33
2022-11-19T04:02:41.010Z,10.67
2022-11-19T04:05:09.432Z,16.00
2022-11-19T04:07:36.505Z,10.00
2022-11-19T04:10:03.743Z,10.33
2022-11-19T04:12:30.681Z,8.67
2022-11-19T04:14:57.567Z,16.00
2022-11-19T04:17:24.512Z,13.00
2022-11-19T04:19:51.560Z,10.00
2022-11-19T04:22:18.505Z,13.00
2022-11-19T04:24:45.420Z,16.33
2022-11-19T04:27:12.429Z,14.00
2022-11-19T04:29:39.407Z,17.00
2022-11-19T04:32:06.373Z,18.33
2022-11-19T04:34:33.332Z,19.00
2022-11-19T04:37:00.286Z,17.00
2022-11-19T04:39:27.570Z,17.67
2022-11-19T04:41:54.701Z,17.00
2022-11-19T04:44:21.659Z,18.33
2022-11-19T04:46:48.591Z,15.33
2022-11-19T04:49:15.579Z,14.67
2022-11-19T04:51:42.572Z,16.00
2022-11-19T04:54:09.740Z,11.00
2022-11-19T04:56:37.800Z,13.00
2022-11-19T04:59:05.648Z,14.00
2022-11-19T05:01:32.681Z,16.00
2022-11-19T05:03:59.790Z,16.00
2022-11-19T05:06:26.756Z,11.00
2022-11-19T05:08:53.738Z,11.00
2022-11-19T05:11:20.687Z,14.00
2022-11-19T05:13:47.629Z,14.00
2022-11-19T05:16:14.697Z,16.33
2022-11-19T05:18:41.667Z,13.67
2022-11-19T05:21:08.735Z,16.33
2022-11-19T05:23:35.656Z,13.67
2022-11-19T05:26:02.565Z,19.00
2022-11-19T05:28:38.668Z,17.00
2022-11-19T05:31:06.930Z,13.00
2022-11-19T05:33:34.656Z,12.00
2022-11-19T05:36:02.215Z,14.00
2022-11-19T05:38:29.212Z,17.00
2022-11-19T05:40:56.201Z,20.33
2022-11-19T05:43:24.019Z,19.00
2022-11-19T05:45:50.965Z,14.67
2022-11-19T05:48:17.888Z,17.33
2022-11-19T05:50:44.853Z,16.00
2022-11-19T05:53:11.824Z,17.67
2022-11-19T05:55:38.771Z,15.33
2022-11-19T05:58:05.651Z,14.67
2022-11-19T06:00:32.517Z,14.00
2022-11-19T06:02:59.559Z,15.00
2022-11-19T06:05:26.584Z,20.00
2022-11-19T06:07:53.493Z,16.67
2022-11-19T06:10:20.438Z,16.00
2022-11-19T06:12:47.362Z,14.00
2022-11-19T06:15:15.240Z,15.33
2022-11-19T06:17:42.547Z,12.67
2022-11-19T06:20:11.397Z,10.00
2022-11-19T06:22:39.023Z,11.00
2022-11-19T06:25:07.830Z,10.67
2022-11-19T06:27:35.394Z,22.33
2022-11-19T06:30:02.452Z,13.00
2022-11-19T06:32:29.426Z,19.00
2022-11-19T06:34:56.360Z,15.67
2022-11-19T06:37:23.586Z,16.00
2022-11-19T06:39:50.558Z,19.00
2022-11-19T06:42:36.302Z,17.00
2022-11-19T06:45:14.370Z,18.33
2022-11-19T06:47:42.392Z,14.00
2022-11-19T06:50:10.926Z,14.00
2022-11-19T06:52:38.196Z,20.00
2022-11-19T06:55:05.520Z,18.67
2022-11-19T06:57:32.560Z,21.33
2022-11-19T06:59:59.504Z,14.67
2022-11-19T07:02:26.454Z,14.00
2022-11-19T07:04:53.475Z,20.33
2022-11-19T07:07:20.360Z,15.33
2022-11-19T07:09:47.313Z,17.00
2022-11-19T07:12:14.177Z,14.00
2022-11-19T07:14:41.179Z,17.00
2022-11-19T07:17:08.115Z,24.00
2022-11-19T07:19:35.111Z,20.33
2022-11-19T07:22:02.022Z,23.00
2022-11-19T07:24:28.986Z,21.00
2022-11-19T07:26:56.439Z,14.67
2022-11-19T07:29:23.642Z,20.00
2022-11-19T07:31:51.011Z,10.67
2022-11-19T07:34:18.625Z,10.67
2022-11-19T07:36:46.696Z,15.00
2022-11-19T07:39:13.813Z,14.67
2022-11-19T07:41:59.429Z,13.33
2022-11-19T07:44:26.748Z,14.00
2022-11-19T07:46:53.787Z,10.00
2022-11-19T07:49:21.185Z,9.33
2022-11-19T07:51:48.418Z,8.00
2022-11-19T07:54:15.527Z,7.00
2022-11-19T07:56:42.986Z,5.00
2022-11-19T07:59:10.602Z,0.00
2022-11-19T08:01:38.263Z,4.00
2022-11-19T08:04:05.523Z,4.00
2022-11-19T08:06:34.748Z,2.00
2022-11-19T08:09:04.164Z,2.00
2022-11-19T08:11:31.564Z,7.33
2022-11-19T08:14:02.248Z,7.00
2022-11-19T08:16:48.782Z,5.67
2022-11-19T08:19:16.883Z,4.00
2022-11-19T08:21:46.182Z,4.00
2022-11-19T08:24:14.948Z,3.33
2022-11-19T08:26:43.442Z,2.00
2022-11-19T08:29:15.914Z,2.00
2022-11-19T08:31:45.182Z,7.00
2022-11-19T08:34:12.537Z,4.67
2022-11-19T08:36:39.837Z,4.00
2022-11-19T08:39:06.995Z,5.00
2022-11-19T08:41:52.729Z,4.33
2022-11-19T08:44:20.085Z,2.00
2022-11-19T08:46:47.346Z,5.00
2022-11-19T08:49:14.636Z,1.00
2022-11-19T08:51:41.641Z,5.00
2022-11-19T08:54:09.210Z,5.00
2022-11-19T08:56:36.931Z,6.33
2022-11-19T08:59:04.361Z,5.00
2022-11-19T09:01:31.669Z,9.00
2022-11-19T09:03:59.026Z,10.33
2022-11-19T09:06:26.594Z,5.33
2022-11-19T09:08:53.620Z,0.00
2022-11-19T09:11:22.211Z,2.00
2022-11-19T09:13:49.673Z,4.67
2022-11-19T09:16:17.263Z,4.33
2022-11-19T09:18:44.947Z,4.67
2022-11-19T09:21:12.934Z,6.00
2022-11-19T09:23:41.790Z,5.00
2022-11-19T09:26:15.200Z,3.33
2022-11-19T09:28:43.436Z,1.33
2022-11-19T09:31:13.536Z,2.00
2022-11-19T09:33:42.546Z,1.67
2022-11-19T09:36:10.913Z,1.33
2022-11-19T09:38:39.576Z,2.00
2022-11-19T09:41:44.076Z,0.00
2022-11-19T09:44:23.080Z,0.00
2022-11-19T09:46:59.138Z,0.00
2022-11-19T09:49:36.940Z,6.33
2022-11-19T09:52:14.140Z,4.00
2022-11-19T09:54:48.826Z,7.33
2022-11-19T09:57:28.115Z,11.00
2022-11-19T09:59:59.459Z,11.00
2022-11-19T10:02:26.834Z,6.00
2022-11-19T10:04:54.496Z,4.67
2022-11-19T10:07:41.085Z,4.00
2022-11-19T10:10:36.050Z,3.33
2022-11-19T10:13:33.763Z,4.67
2022-11-19T10:16:17.481Z,2.00
2022-11-19T10:19:22.686Z,3.50
2022-11-19T10:22:07.819Z,6.67
2022-11-19T10:24:42.559Z,15.00
2022-11-19T10:27:26.181Z,10.33
2022-11-19T10:29:58.594Z,6.00
2022-11-19T10:33:00.939Z,9.00
2022-11-19T10:35:36.462Z,7.33
2022-11-19T10:38:07.555Z,10.33
2022-11-19T10:41:00.336Z,6.00
2022-11-19T10:43:48.937Z,5.00
2022-11-19T10:46:20.346Z,5.00
2022-11-19T10:48:52.006Z,4.00
2022-11-19T10:51:26.175Z,7.33
2022-11-19T10:53:56.309Z,8.33
2022-11-19T10:56:44.467Z,16.00
2022-11-19T10:59:24.765Z,16.00
2022-11-19T11:01:58.430Z,13.67
2022-11-19T11:04:30.449Z,12.00
2022-11-19T11:07:04.502Z,18.33
2022-11-19T11:09:35.822Z,15.00
2022-11-19T11:12:35.552Z,15.67
2022-11-19T11:15:30.766Z,14.00
2022-11-19T11:18:09.258Z,8.00
2022-11-19T11:20:41.755Z,9.00
2022-11-19T11:23:26.376Z,14.00
2022-11-19T11:26:14.082Z,14.00
2022-11-19T11:29:01.931Z,8.00
2022-11-19T11:31:45.599Z,7.00
2022-11-19T11:34:37.142Z,7.67
2022-11-19T11:37:10.162Z,16.00
2022-11-19T11:39:45.101Z,11.00
2022-11-19T11:42:21.436Z,12.67
2022-11-19T11:44:56.357Z,9.00
2022-11-19T11:47:32.401Z,6.00
2022-11-19T11:50:19.010Z,8.00
2022-11-19T11:52:53.927Z,18.67
2022-11-19T11:55:25.865Z,22.00
2022-11-19T11:58:07.011Z,26.00
2022-11-19T12:00:43.124Z,16.33
2022-11-19T12:03:20.244Z,16.33
2022-11-19T12:05:58.538Z,19.00
2022-11-19T12:08:52.901Z,16.00
2022-11-19T12:11:29.060Z,18.67
2022-11-19T12:14:21.317Z,18.33
2022-11-19T12:17:17.936Z,16.67
2022-11-19T12:20:24.100Z,15.00
2022-11-19T12:22:56.934Z,8.00
2022-11-19T12:25:48.149Z,5.00
2022-11-19T12:28:52.220Z,4.33
2022-11-19T12:31:29.680Z,8.00
2022-11-19T12:34:15.122Z,6.67
2022-11-19T12:37:01.997Z,4.33
2022-11-19T12:40:15.853Z,4.67
2022-11-19T12:43:00.426Z,4.00
2022-11-19T12:45:57.880Z,4.00
2022-11-19T12:48:52.678Z,4.00
2022-11-19T12:51:42.666Z,2.00
2022-11-19T12:54:17.576Z,6.33
2022-11-19T12:56:58.075Z,4.00
2022-11-19T12:59:33.836Z,12.00
2022-11-19T13:02:11.126Z,18.00
2022-11-19T13:04:46.117Z,11.00
2022-11-19T13:07:19.910Z,9.00
2022-11-19T13:09:54.999Z,7.00
2022-11-19T13:12:26.807Z,11.00
2022-11-19T13:14:59.874Z,11.33
2022-11-19T13:17:30.318Z,8.67
2022-11-19T13:20:12.035Z,5.00
2022-11-19T13:22:44.424Z,7.00
2022-11-19T13:25:24.590Z,2.00
2022-11-19T13:27:54.952Z,5.67
2022-11-19T13:30:27.500Z,1.00
2022-11-19T13:33:00.357Z,2.00
2022-11-19T13:35:38.973Z,4.00
2022-11-19T13:38:20.047Z,5.67
2022-11-19T13:40:53.241Z,9.00
2022-11-19T13:43:41.182Z,4.00
2022-11-19T13:46:11.090Z,6.33
2022-11-19T13:48:44.642Z,7.00
2022-11-19T13:51:55.437Z,8.67
2022-11-19T13:54:26.964Z,12.00
2022-11-19T13:56:57.592Z,9.00
2022-11-19T13:59:39.782Z,16.67
2022-11-19T14:02:43.947Z,12.67
2022-11-19T14:05:29.623Z,8.67
2022-11-19T14:08:18.123Z,7.00
2022-11-19T14:11:11.076Z,5.00
2022-11-19T14:14:35.191Z,4.33
2022-11-19T14:17:56.767Z,4.00
2022-11-19T14:21:01.841Z,4.00
2022-11-19T14:24:03.616Z,5.00
2022-11-19T14:27:00.736Z,9.00
2022-11-19T14:29:27.610Z,13.67
2022-11-19T14:32:00.529Z,12.00
2022-11-19T14:34:35.192Z,9.33
2022-11-19T14:37:28.015Z,8.67
2022-11-19T14:40:06.630Z,5.67
2022-11-19T14:42:33.768Z,4.00
2022-11-19T14:45:03.406Z,4.00
2022-11-19T14:47:35.596Z,3.33
2022-11-19T14:50:09.934Z,4.00
2022-11-19T14:52:55.137Z,4.00
2022-11-19T14:55:30.373Z,2.67
2022-11-19T14:58:02.352Z,1.00
2022-11-19T15:00:32.127Z,1.00
2022-11-19T15:03:01.655Z,2.00
2022-11-19T15:05:36.799Z,1.00
2022-11-19T15:08:19.083Z,1.00
2022-11-19T15:11:08.577Z,1.00
2022-11-19T15:13:40.949Z,1.00
2022-11-19T15:16:17.646Z,0.00
2022-11-19T15:18:45.184Z,0.00
2022-11-19T15:21:15.424Z,6.33
2022-11-19T15:24:11.151Z,7.67
2022-11-19T15:27:05.410Z,8.00
2022-11-19T15:30:01.020Z,11.67
2022-11-19T15:32:52.738Z,19.33
2022-11-19T15:35:54.603Z,20.00
2022-11-19T15:38:25.121Z,15.33
2022-11-19T15:40:56.492Z,11.00
2022-11-19T15:43:27.767Z,27.67
2022-11-19T15:46:18.785Z,23.00
2022-11-19T15:49:22.995Z,17.00
2022-11-19T15:52:10.805Z,17.00
2022-11-19T15:54:41.548Z,15.33
2022-11-19T15:57:17.454Z,11.00
2022-11-19T15:59:49.833Z,15.67
2022-11-19T16:02:41.441Z,16.00
2022-11-19T16:05:23.458Z,13.00
2022-11-19T16:07:52.563Z,18.00
2022-11-19T16:10:28.751Z,27.67
2022-11-19T16:13:19.496Z,26.67
2022-11-19T16:16:10.763Z,31.00
2022-11-19T16:18:52.378Z,29.50
2022-11-19T16:21:27.797Z,32.25
2022-11-19T16:24:13.870Z,31.00
2022-11-19T16:26:42.837Z,23.00
2022-11-19T16:29:19.779Z,28.67
2022-11-19T16:31:50.357Z,28.33
2022-11-19T16:34:25.942Z,26.75
2022-11-19T16:36:53.554Z,29.50
2022-11-19T16:39:25.504Z,9.50
2022-11-19T16:42:15.930Z,23.00
2022-11-19T16:44:53.608Z,17.67
2022-11-19T16:47:33.688Z,14.00
2022-11-19T16:50:24.919Z,22.67
2022-11-19T16:52:51.849Z,20.67
2022-11-19T16:55:18.735Z,26.00
2022-11-19T16:58:16.560Z,10.00
2022-11-19T17:00:48.241Z,17.67
2022-11-19T17:03:29.852Z,13.00
2022-11-19T17:05:58.742Z,14.00
2022-11-19T17:08:31.732Z,11.67
2022-11-19T17:11:42.563Z,13.33
2022-11-19T17:14:16.741Z,21.00
2022-11-19T17:16:50.148Z,14.33
2022-11-19T17:19:29.147Z,13.00
2022-11-19T17:22:01.994Z,11.00
2022-11-19T17:24:38.305Z,10.67
2022-11-19T17:27:05.482Z,12.00
2022-11-19T17:29:32.818Z,19.00
2022-11-19T17:31:59.938Z,14.33
2022-11-19T17:34:31.451Z,5.00
2022-11-19T17:36:59.056Z,11.00
2022-11-19T17:39:26.232Z,10.00
2022-11-19T17:42:13.911Z,10.00
2022-11-19T17:44:41.725Z,16.00
2022-11-19T17:47:23.220Z,16.00
2022-11-19T17:49:51.317Z,11.67
2022-11-19T17:52:27.984Z,13.00
2022-11-19T17:55:10.956Z,6.00
2022-11-19T17:57:42.402Z,16.67
2022-11-19T18:00:10.601Z,18.00
2022-11-19T18:02:37.544Z,12.00
2022-11-19T18:05:15.401Z,9.67
2022-11-19T18:07:42.487Z,8.67
2022-11-19T18:10:10.274Z,8.33
2022-11-19T18:12:37.227Z,6.00
2022-11-19T18:15:05.008Z,4.00
2022-11-19T18:17:31.954Z,6.67
2022-11-19T18:19:58.827Z,5.67
2022-11-19T18:22:25.805Z,7.00
2022-11-19T18:24:52.895Z,6.00
2022-11-19T18:27:19.898Z,9.00
2022-11-19T18:29:47.103Z,13.67
2022-11-19T18:32:17.136Z,14.33
2022-11-19T18:34:45.663Z,9.33
2022-11-19T18:37:13.285Z,4.00
2022-11-19T18:39:40.461Z,7.00
2022-11-19T18:42:12.108Z,15.00
2022-11-19T18:44:39.550Z,39.00
2022-11-19T18:47:10.170Z,38.00
2022-11-19T18:49:37.901Z,27.75
2022-11-19T18:52:07.426Z,31.00
2022-11-19T18:54:34.402Z,36.00
2022-11-19T18:57:01.607Z,28.00
2022-11-19T18:59:30.288Z,26.00
2022-11-19T19:01:57.535Z,21.25
2022-11-19T19:04:24.580Z,24.50
2022-11-19T19:06:51.629Z,25.50
2022-11-19T19:09:20.633Z,25.00
2022-11-19T19:12:12.649Z,23.50
2022-11-19T19:14:40.943Z,23.00
2022-11-19T19:17:08.453Z,17.50
2022-11-19T19:19:35.837Z,16.25
2022-11-19T19:22:02.768Z,21.00
2022-11-19T19:24:30.753Z,22.25
2022-11-19T19:26:57.685Z,21.00
2022-11-19T19:29:24.959Z,18.25
2022-11-19T19:31:52.454Z,15.25
2022-11-19T19:34:20.048Z,9.25
2022-11-19T19:36:52.746Z,13.50
2022-11-19T19:39:20.453Z,13.00
2022-11-19T19:41:49.438Z,15.25
2022-11-19T19:44:16.733Z,23.00
2022-11-19T19:46:43.874Z,25.25
2022-11-19T19:49:10.829Z,6.50
2022-11-19T19:51:37.773Z,19.00
2022-11-19T19:54:04.790Z,18.00
2022-11-19T19:56:33.646Z,17.00
2022-11-19T19:59:02.187Z,15.25
2022-11-19T20:01:31.772Z,10.00
2022-11-19T20:04:07.007Z,9.25
2022-11-19T20:06:35.657Z,6.67
2022-11-19T20:09:08.236Z,15.00
2022-11-19T20:11:36.367Z,13.00
2022-11-19T20:14:03.287Z,26.75
2022-11-19T20:16:32.099Z,34.00
2022-11-19T20:19:00.531Z,34.00
2022-11-19T20:21:31.843Z,33.00
2022-11-19T20:23:58.822Z,22.00
2022-11-19T20:26:28.791Z,24.75
2022-11-19T20:28:58.340Z,21.50
2022-11-19T20:31:26.447Z,29.50
2022-11-19T20:33:59.111Z,25.75
2022-11-19T20:36:28.862Z,22.00
2022-11-19T20:38:57.709Z,21.25
2022-11-19T20:41:43.514Z,18.50
2022-11-19T20:44:23.406Z,18.50
2022-11-19T20:46:57.324Z,31.25
2022-11-19T20:49:28.865Z,30.25
2022-11-19T20:51:57.053Z,32.50
2022-11-19T20:54:25.237Z,34.50
2022-11-19T20:56:53.324Z,42.75
2022-11-19T20:59:21.181Z,45.50
2022-11-19T21:01:50.110Z,41.50
2022-11-19T21:04:17.936Z,42.00
2022-11-19T21:06:45.096Z,40.00
2022-11-19T21:09:12.038Z,42.75
2022-11-19T21:11:39.132Z,46.50
2022-11-19T21:14:06.825Z,51.25
2022-11-19T21:16:33.767Z,48.50
2022-11-19T21:19:00.855Z,46.00
2022-11-19T21:21:28.061Z,36.50
2022-11-19T21:23:55.193Z,27.75
2022-11-19T21:26:24.486Z,33.00
2022-11-19T21:28:54.048Z,34.00
2022-11-19T21:31:23.662Z,36.00
2022-11-19T21:33:50.642Z,38.25
2022-11-19T21:36:17.589Z,30.00
2022-11-19T21:38:44.532Z,25.00
2022-11-19T21:41:11.421Z,24.00
2022-11-19T21:43:38.359Z,32.50
2022-11-19T21:46:08.482Z,30.00
2022-11-19T21:48:38.473Z,31.00
2022-11-19T21:51:07.762Z,44.50
2022-11-19T21:53:35.878Z,43.25
2022-11-19T21:56:02.804Z,33.00
2022-11-19T21:58:29.821Z,18.00
2022-11-19T22:01:04.642Z,33.50
2022-11-19T22:03:33.512Z,27.50
2022-11-19T22:06:09.201Z,24.75
2022-11-19T22:08:41.565Z,35.25
2022-11-19T22:11:28.663Z,35.50
2022-11-19T22:13:57.825Z,33.00
2022-11-19T22:16:24.826Z,42.75
2022-11-19T22:18:51.775Z,39.00
2022-11-19T22:21:19.245Z,32.25
2022-11-19T22:23:46.607Z,41.00
2022-11-19T22:26:15.767Z,52.00
2022-11-19T22:28:42.964Z,50.75
2022-11-19T22:31:11.104Z,42.00
2022-11-19T22:33:40.319Z,33.50
2022-11-19T22:36:10.573Z,36.00
2022-11-19T22:38:39.383Z,33.50
2022-11-19T22:41:15.558Z,41.50
2022-11-19T22:43:43.074Z,37.75
2022-11-19T22:46:15.005Z,48.50
2022-11-19T22:48:42.190Z,50.50
2022-11-19T22:51:18.020Z,39.00
2022-11-19T22:53:45.601Z,34.50
2022-11-19T22:56:14.684Z,36.00
2022-11-19T22:58:42.057Z,38.50
2022-11-19T23:01:16.762Z,25.75
2022-11-19T23:03:44.206Z,24.75
2022-11-19T23:06:11.139Z,23.50
2022-11-19T23:08:38.408Z,29.00
2022-11-19T23:11:07.308Z,29.50
2022-11-19T23:13:39.263Z,30.00
2022-11-19T23:16:13.461Z,31.00
2022-11-19T23:18:45.939Z,36.50
2022-11-19T23:21:24.788Z,41.00
2022-11-19T23:23:53.228Z,30.00
2022-11-19T23:26:23.358Z,46.00
2022-11-19T23:28:51.104Z,35.00
2022-11-19T23:31:23.709Z,28.50
2022-11-19T23:33:58.542Z,24.25
2022-11-19T23:36:28.603Z,28.50
2022-11-19T23:38:55.604Z,12.75
2022-11-19T23:41:23.133Z,38.50
2022-11-19T23:43:52.485Z,37.00
2022-11-19T23:46:25.186Z,33.50
2022-11-19T23:48:53.307Z,35.00
2022-11-19T23:51:26.097Z,30.50
2022-11-19T23:53:53.276Z,32.00
2022-11-19T23:56:21.727Z,29.50
2022-11-19T23:58:48.979Z,43.50
